createdAt,value
2019-05-20T00:01:45.357Z,17.52
2019-05-20T00:04:16.959Z,17.27
2019-05-20T00:06:46.847Z,17.30
2019-05-20T00:09:16.340Z,17.42
2019-05-20T00:11:46.108Z,18.62
2019-05-20T00:14:16.113Z,20.90
2019-05-20T00:16:45.853Z,20.88
2019-05-20T00:19:15.647Z,22.35
2019-05-20T00:21:45.278Z,23.00
2019-05-20T00:24:14.845Z,23.83
2019-05-20T00:26:44.704Z,21.55
2019-05-20T00:29:14.253Z,23.32
2019-05-20T00:31:44.635Z,23.55
2019-05-20T00:34:14.283Z,23.12
2019-05-20T00:36:43.963Z,23.70
2019-05-20T00:39:20.401Z,25.40
2019-05-20T00:41:50.551Z,25.50
2019-05-20T00:44:20.214Z,24.27
2019-05-20T00:46:49.779Z,22.82
2019-05-20T00:49:19.682Z,22.50
2019-05-20T00:51:49.109Z,22.35
2019-05-20T00:54:18.991Z,22.48
2019-05-20T00:56:48.747Z,23.12
2019-05-20T00:59:18.619Z,21.93
2019-05-20T01:01:48.687Z,21.27
2019-05-20T01:04:18.725Z,21.70
2019-05-20T01:06:48.718Z,21.17
2019-05-20T01:09:18.898Z,21.48
2019-05-20T01:11:48.576Z,21.77
2019-05-20T01:14:18.535Z,20.85
2019-05-20T01:16:48.750Z,21.52
2019-05-20T01:19:18.446Z,21.65
2019-05-20T01:21:47.963Z,19.90
2019-05-20T01:24:17.728Z,20.82
2019-05-20T01:26:47.172Z,20.25
2019-05-20T01:29:16.801Z,21.82
2019-05-20T01:31:46.412Z,20.23
2019-05-20T01:34:16.252Z,20.25
2019-05-20T01:36:45.935Z,21.87
2019-05-20T01:39:15.544Z,20.52
2019-05-20T01:41:45.193Z,19.90
2019-05-20T01:44:14.935Z,21.60
2019-05-20T01:46:44.558Z,22.15
2019-05-20T01:49:14.098Z,20.68
2019-05-20T01:51:43.784Z,21.77
2019-05-20T01:54:13.519Z,21.95
2019-05-20T01:56:43.299Z,21.17
2019-05-20T01:59:13.312Z,21.93
2019-05-20T02:01:43.090Z,20.90
2019-05-20T02:04:13.818Z,21.07
2019-05-20T02:06:49.607Z,21.48
2019-05-20T02:09:19.326Z,21.02
2019-05-20T02:11:49.090Z,21.90
2019-05-20T02:14:20.474Z,22.62
2019-05-20T02:16:50.133Z,22.52
2019-05-20T02:19:19.637Z,21.97
2019-05-20T02:21:49.327Z,22.22
2019-05-20T02:24:19.057Z,22.22
2019-05-20T02:26:49.011Z,22.82
2019-05-20T02:29:18.818Z,21.20
2019-05-20T02:31:48.446Z,22.00
2019-05-20T02:34:18.609Z,22.58
2019-05-20T02:36:48.275Z,21.55
2019-05-20T02:39:18.385Z,21.12
2019-05-20T02:41:48.003Z,21.12
2019-05-20T02:44:17.751Z,21.95
2019-05-20T02:46:47.574Z,22.15
2019-05-20T02:49:17.146Z,21.60
2019-05-20T02:51:46.673Z,21.33
2019-05-20T02:54:16.388Z,21.93
2019-05-20T02:56:46.126Z,22.58
2019-05-20T02:59:16.208Z,23.85
2019-05-20T03:01:45.889Z,22.85
2019-05-20T03:04:15.376Z,23.60
2019-05-20T03:06:45.066Z,22.77
2019-05-20T03:09:15.009Z,22.25
2019-05-20T03:11:44.687Z,22.80
2019-05-20T03:14:14.676Z,23.07
2019-05-20T03:16:44.306Z,22.87
2019-05-20T03:19:14.919Z,24.10
2019-05-20T03:21:45.412Z,22.73
2019-05-20T03:24:15.055Z,22.60
2019-05-20T03:26:45.065Z,22.02
2019-05-20T03:29:15.062Z,22.60
2019-05-20T03:31:44.762Z,21.52
2019-05-20T03:34:41.754Z,22.48
2019-05-20T03:36:46.093Z,21.82
2019-05-20T03:39:15.893Z,23.32
2019-05-20T03:41:45.427Z,22.25
2019-05-20T03:44:15.102Z,21.07
2019-05-20T03:46:45.075Z,21.65
2019-05-20T03:49:14.713Z,23.40
2019-05-20T03:51:44.580Z,22.73
2019-05-20T03:54:14.625Z,24.55
2019-05-20T03:56:44.945Z,24.10
2019-05-20T03:59:14.906Z,23.20
2019-05-20T04:01:44.680Z,24.27
2019-05-20T04:04:14.259Z,23.50
2019-05-20T04:06:43.878Z,22.85
2019-05-20T04:09:13.482Z,22.87
2019-05-20T04:11:43.399Z,23.05
2019-05-20T04:14:12.902Z,23.27
2019-05-20T04:16:42.670Z,23.25
2019-05-20T04:19:12.240Z,22.73
2019-05-20T04:21:41.961Z,21.27
2019-05-20T04:24:11.850Z,19.87
2019-05-20T04:26:41.650Z,19.32
2019-05-20T04:29:11.355Z,18.60
2019-05-20T04:31:41.250Z,20.27
2019-05-20T04:34:10.978Z,20.05
2019-05-20T04:36:40.864Z,19.62
2019-05-20T04:39:10.945Z,18.40
2019-05-20T04:41:40.816Z,17.35
2019-05-20T04:44:10.761Z,18.20
2019-05-20T04:46:41.437Z,18.52
2019-05-20T04:49:13.874Z,17.92
2019-05-20T04:51:43.695Z,20.12
2019-05-20T04:54:13.519Z,20.90
2019-05-20T04:56:43.354Z,18.67
2019-05-20T04:59:12.985Z,18.10
2019-05-20T05:01:45.022Z,20.30
2019-05-20T05:04:14.649Z,17.48
2019-05-20T05:06:44.538Z,17.35
2019-05-20T05:09:16.149Z,17.90
2019-05-20T05:11:47.457Z,19.02
2019-05-20T05:14:17.793Z,20.02
2019-05-20T05:16:47.502Z,20.20
2019-05-20T05:19:17.219Z,23.20
2019-05-20T05:21:46.683Z,20.17
2019-05-20T05:24:16.122Z,18.90
2019-05-20T05:26:47.797Z,20.97
2019-05-20T05:29:18.252Z,20.27
2019-05-20T05:31:48.563Z,19.90
2019-05-20T05:34:18.194Z,20.02
2019-05-20T05:36:48.327Z,20.92
2019-05-20T05:39:18.508Z,20.25
2019-05-20T05:41:47.965Z,20.55
2019-05-20T05:44:18.339Z,20.40
2019-05-20T05:46:47.714Z,20.00
2019-05-20T05:49:17.454Z,21.50
2019-05-20T05:51:47.188Z,21.57
2019-05-20T05:54:16.685Z,20.72
2019-05-20T05:56:46.407Z,20.15
2019-05-20T05:59:16.082Z,20.00
2019-05-20T06:01:45.708Z,18.90
2019-05-20T06:04:15.408Z,19.60
2019-05-20T06:06:45.078Z,19.85
2019-05-20T06:09:14.536Z,19.87
2019-05-20T06:11:44.305Z,19.55
2019-05-20T06:14:16.684Z,19.23
2019-05-20T06:16:46.486Z,18.35
2019-05-20T06:19:16.113Z,20.50
2019-05-20T06:21:45.732Z,20.82
2019-05-20T06:24:15.383Z,19.27
2019-05-20T06:26:44.871Z,21.02
2019-05-20T06:29:14.507Z,19.50
2019-05-20T06:31:44.057Z,19.50
2019-05-20T06:34:13.834Z,19.70
2019-05-20T06:36:47.737Z,19.00
2019-05-20T06:39:17.409Z,18.77
2019-05-20T06:41:47.063Z,17.45
2019-05-20T06:44:16.628Z,18.65
2019-05-20T06:46:46.689Z,19.30
2019-05-20T06:49:16.396Z,19.70
2019-05-20T06:51:46.337Z,18.95
2019-05-20T06:54:16.272Z,17.87
2019-05-20T06:56:46.598Z,18.67
2019-05-20T06:59:17.437Z,18.05
2019-05-20T07:01:47.329Z,18.65
2019-05-20T07:04:17.140Z,17.82
2019-05-20T07:06:47.695Z,19.42
2019-05-20T07:09:17.740Z,19.23
2019-05-20T07:11:52.631Z,19.85
2019-05-20T07:14:18.548Z,19.90
2019-05-20T07:16:48.562Z,19.67
2019-05-20T07:19:18.257Z,20.17
2019-05-20T07:21:48.063Z,19.80
2019-05-20T07:24:17.720Z,19.52
2019-05-20T07:26:47.461Z,20.37
2019-05-20T07:29:17.581Z,19.27
2019-05-20T07:31:47.178Z,21.20
2019-05-20T07:34:17.297Z,20.35
2019-05-20T07:37:01.869Z,19.82
2019-05-20T07:39:18.799Z,19.98
2019-05-20T07:41:48.531Z,20.08
2019-05-20T07:44:18.041Z,20.17
2019-05-20T07:46:47.447Z,19.73
2019-05-20T07:49:17.020Z,21.17
2019-05-20T07:51:46.509Z,21.75
2019-05-20T07:54:16.168Z,21.62
2019-05-20T07:56:45.696Z,22.67
2019-05-20T07:59:16.020Z,22.67
2019-05-20T08:01:45.900Z,23.42
2019-05-20T08:04:15.482Z,23.62
2019-05-20T08:06:45.082Z,23.77
2019-05-20T08:09:14.830Z,24.25
2019-05-20T08:11:44.548Z,24.70
2019-05-20T08:14:14.253Z,24.90
2019-05-20T08:16:44.987Z,25.37
2019-05-20T08:19:14.633Z,26.07
2019-05-20T08:21:44.226Z,24.23
2019-05-20T08:24:13.960Z,27.30
2019-05-20T08:26:44.098Z,28.25
2019-05-20T08:29:13.970Z,29.07
2019-05-20T08:31:43.554Z,27.98
2019-05-20T08:34:13.217Z,29.10
2019-05-20T08:36:43.180Z,30.85
2019-05-20T08:39:12.794Z,29.87
2019-05-20T08:41:42.504Z,34.55
2019-05-20T08:44:12.182Z,33.28
2019-05-20T08:46:41.702Z,33.58
2019-05-20T08:49:11.792Z,36.17
2019-05-20T08:51:41.541Z,36.15
2019-05-20T08:54:12.069Z,36.83
2019-05-20T08:56:41.957Z,37.30
2019-05-20T08:59:12.001Z,37.38
2019-05-20T09:01:41.750Z,37.65
2019-05-20T09:04:11.381Z,37.03
2019-05-20T09:06:41.021Z,37.03
2019-05-20T09:09:12.406Z,40.08
2019-05-20T09:11:41.887Z,37.65
2019-05-20T09:14:12.878Z,38.78
2019-05-20T09:16:43.451Z,37.55
2019-05-20T09:19:12.961Z,39.35
2019-05-20T09:21:42.707Z,39.60
2019-05-20T09:24:12.560Z,36.35
2019-05-20T09:26:42.384Z,36.50
2019-05-20T09:29:12.013Z,37.33
2019-05-20T09:31:41.818Z,34.53
2019-05-20T09:34:11.354Z,33.18
2019-05-20T09:36:41.238Z,33.40
2019-05-20T09:39:10.826Z,35.95
2019-05-20T09:41:40.292Z,33.80
2019-05-20T09:44:09.925Z,33.85
2019-05-20T09:46:39.954Z,32.58
2019-05-20T09:49:09.696Z,31.42
2019-05-20T09:51:39.804Z,33.50
2019-05-20T09:54:09.482Z,34.38
2019-05-20T09:56:40.427Z,36.08
2019-05-20T09:59:10.223Z,35.38
2019-05-20T10:01:40.521Z,34.15
2019-05-20T10:04:10.309Z,32.05
2019-05-20T10:06:40.317Z,30.25
2019-05-20T10:09:10.076Z,31.57
2019-05-20T10:11:39.579Z,33.98
2019-05-20T10:14:09.325Z,35.43
2019-05-20T10:16:39.670Z,35.88
2019-05-20T10:19:09.405Z,34.58
2019-05-20T10:21:39.146Z,33.15
2019-05-20T10:24:08.931Z,30.97
2019-05-20T10:26:38.531Z,32.33
2019-05-20T10:29:08.848Z,33.20
2019-05-20T10:31:38.729Z,33.50
2019-05-20T10:34:08.716Z,34.53
2019-05-20T10:36:39.028Z,33.08
2019-05-20T10:39:08.856Z,30.40
2019-05-20T10:41:38.480Z,28.55
2019-05-20T10:44:08.208Z,27.30
2019-05-20T10:46:38.581Z,37.42
2019-05-20T10:49:08.265Z,31.30
2019-05-20T10:51:38.054Z,39.53
2019-05-20T10:54:07.725Z,39.27
2019-05-20T10:56:37.283Z,32.45
2019-05-20T10:59:11.591Z,33.80
2019-05-20T11:01:38.281Z,30.10
2019-05-20T11:04:09.156Z,35.23
2019-05-20T11:06:38.885Z,32.03
2019-05-20T11:09:14.047Z,33.67
2019-05-20T11:11:40.013Z,29.25
2019-05-20T11:14:09.622Z,30.65
2019-05-20T11:16:39.322Z,32.03
2019-05-20T11:19:09.392Z,30.08
2019-05-20T11:21:39.058Z,28.45
2019-05-20T11:24:09.824Z,25.72
2019-05-20T11:26:39.678Z,29.45
2019-05-20T11:29:09.446Z,28.90
2019-05-20T11:31:39.474Z,27.05
2019-05-20T11:34:09.056Z,27.22
2019-05-20T11:36:39.807Z,22.75
2019-05-20T11:39:10.526Z,19.87
2019-05-20T11:41:52.970Z,19.90
2019-05-20T11:44:12.134Z,16.05
2019-05-20T11:46:41.903Z,16.07
2019-05-20T11:49:12.469Z,17.92
2019-05-20T11:51:42.063Z,15.15
2019-05-20T11:54:11.751Z,14.65
2019-05-20T11:56:41.574Z,12.58
2019-05-20T11:59:11.203Z,10.48
2019-05-20T12:01:41.094Z,11.10
2019-05-20T12:04:10.674Z,10.78
2019-05-20T12:06:40.324Z,9.20
2019-05-20T12:09:10.192Z,6.87
2019-05-20T12:11:39.755Z,6.78
2019-05-20T12:14:09.605Z,7.55
2019-05-20T12:16:39.141Z,7.00
2019-05-20T12:19:08.816Z,6.28
2019-05-20T12:21:38.433Z,6.50
2019-05-20T12:24:08.108Z,4.95
2019-05-20T12:26:37.934Z,5.87
2019-05-20T12:29:07.636Z,4.15
2019-05-20T12:31:37.154Z,2.87
2019-05-20T12:34:06.904Z,2.62
2019-05-20T12:36:36.416Z,2.72
2019-05-20T12:39:06.918Z,3.20
2019-05-20T12:41:37.393Z,2.50
2019-05-20T12:44:12.981Z,2.27
2019-05-20T12:46:37.979Z,2.80
2019-05-20T12:49:07.841Z,2.50
2019-05-20T12:51:37.499Z,2.05
2019-05-20T12:54:06.983Z,2.20
2019-05-20T12:56:36.387Z,2.40
2019-05-20T12:59:05.932Z,2.22
2019-05-20T13:01:35.566Z,1.80
2019-05-20T13:04:05.026Z,3.02
2019-05-20T13:06:34.701Z,1.92
2019-05-20T13:09:04.959Z,1.52
2019-05-20T13:11:34.660Z,1.35
2019-05-20T13:14:05.762Z,1.30
2019-05-20T13:16:35.309Z,1.72
2019-05-20T13:19:04.774Z,1.82
2019-05-20T13:21:34.452Z,1.67
2019-05-20T13:24:04.583Z,1.90
2019-05-20T13:26:34.140Z,1.90
2019-05-20T13:29:03.461Z,2.37
2019-05-20T13:31:33.459Z,2.20
2019-05-20T13:34:04.281Z,2.42
2019-05-20T13:36:34.618Z,2.67
2019-05-20T13:39:05.138Z,2.65
2019-05-20T13:41:34.638Z,2.65
2019-05-20T13:44:04.390Z,2.47
2019-05-20T13:46:34.159Z,3.15
2019-05-20T13:49:04.149Z,2.25
2019-05-20T13:51:33.865Z,2.77
2019-05-20T13:54:03.346Z,2.40
2019-05-20T13:56:32.843Z,2.62
2019-05-20T13:59:02.371Z,2.65
2019-05-20T14:01:32.219Z,3.72
2019-05-20T14:04:01.721Z,2.50
2019-05-20T14:06:32.600Z,2.42
2019-05-20T14:09:02.143Z,2.40
2019-05-20T14:11:34.681Z,2.52
2019-05-20T14:14:03.469Z,2.92
2019-05-20T14:16:36.502Z,1.95
2019-05-20T14:19:07.027Z,1.80
2019-05-20T14:21:36.879Z,2.05
2019-05-20T14:24:07.634Z,1.70
2019-05-20T14:26:43.612Z,1.70
2019-05-20T14:29:13.364Z,2.05
2019-05-20T14:31:44.372Z,1.80
2019-05-20T14:34:14.106Z,1.57
2019-05-20T14:36:43.724Z,1.20
2019-05-20T14:39:13.537Z,2.20
2019-05-20T14:41:43.551Z,2.77
2019-05-20T14:44:12.891Z,2.40
2019-05-20T14:46:42.553Z,2.40
2019-05-20T14:49:12.126Z,2.15
2019-05-20T14:51:41.786Z,2.33
2019-05-20T14:54:11.328Z,2.20
2019-05-20T14:56:40.997Z,2.12
2019-05-20T14:59:11.048Z,2.40
2019-05-20T15:01:40.519Z,2.20
2019-05-20T15:04:09.975Z,2.40
2019-05-20T15:06:39.592Z,2.47
2019-05-20T15:09:09.242Z,2.50
2019-05-20T15:11:39.111Z,2.30
2019-05-20T15:14:08.838Z,2.50
2019-05-20T15:16:38.174Z,2.42
2019-05-20T15:19:07.877Z,2.33
2019-05-20T15:21:37.406Z,2.47
2019-05-20T15:24:06.865Z,2.15
2019-05-20T15:26:37.455Z,2.30
2019-05-20T15:29:07.101Z,2.00
2019-05-20T15:31:36.907Z,2.15
2019-05-20T15:34:06.558Z,1.98
2019-05-20T15:36:36.245Z,2.22
2019-05-20T15:39:06.930Z,2.30
2019-05-20T15:41:36.811Z,2.20
2019-05-20T15:44:06.453Z,2.40
2019-05-20T15:46:36.176Z,2.20
2019-05-20T15:49:05.921Z,2.10
2019-05-20T15:51:36.034Z,1.75
2019-05-20T15:54:05.782Z,1.95
2019-05-20T15:56:35.796Z,2.20
2019-05-20T15:59:05.323Z,2.15
2019-05-20T16:01:34.945Z,2.10
2019-05-20T16:04:04.669Z,2.37
2019-05-20T16:06:35.409Z,2.27
2019-05-20T16:09:05.611Z,2.35
2019-05-20T16:11:36.270Z,2.62
2019-05-20T16:14:05.942Z,2.20
2019-05-20T16:16:35.470Z,2.58
2019-05-20T16:19:05.590Z,1.95
2019-05-20T16:21:35.145Z,2.30
2019-05-20T16:24:04.945Z,2.12
2019-05-20T16:26:34.558Z,2.37
2019-05-20T16:29:04.125Z,2.10
2019-05-20T16:31:33.608Z,2.80
2019-05-20T16:34:03.269Z,2.12
2019-05-20T16:36:32.888Z,2.20
2019-05-20T16:39:02.892Z,2.42
2019-05-20T16:41:32.474Z,2.42
2019-05-20T16:44:02.207Z,2.70
2019-05-20T16:46:32.000Z,2.40
2019-05-20T16:49:01.631Z,3.00
2019-05-20T16:51:32.454Z,2.60
2019-05-20T16:54:02.055Z,2.45
2019-05-20T16:56:31.923Z,3.75
2019-05-20T16:59:01.782Z,2.90
2019-05-20T17:01:45.310Z,2.58
2019-05-20T17:04:02.977Z,2.45
2019-05-20T17:06:32.952Z,2.77
2019-05-20T17:09:03.031Z,2.52
2019-05-20T17:11:33.232Z,2.83
2019-05-20T17:14:02.891Z,2.90
2019-05-20T17:16:32.954Z,3.02
2019-05-20T17:19:03.060Z,2.50
2019-05-20T17:21:32.856Z,2.47
2019-05-20T17:24:03.580Z,2.95
2019-05-20T17:26:33.432Z,2.72
2019-05-20T17:29:02.965Z,2.95
2019-05-20T17:31:32.507Z,3.22
2019-05-20T17:34:02.437Z,2.85
2019-05-20T17:36:32.065Z,3.08
2019-05-20T17:39:01.747Z,3.30
2019-05-20T17:41:34.620Z,3.10
2019-05-20T17:44:04.355Z,3.47
2019-05-20T17:46:34.597Z,3.72
2019-05-20T17:49:04.254Z,4.75
2019-05-20T17:51:33.756Z,3.05
2019-05-20T17:54:04.825Z,3.10
2019-05-20T17:56:34.285Z,3.05
2019-05-20T17:59:03.945Z,3.77
2019-05-20T18:01:33.525Z,3.67
2019-05-20T18:04:03.072Z,3.37
2019-05-20T18:06:32.522Z,3.80
2019-05-20T18:09:02.418Z,3.83
2019-05-20T18:11:33.535Z,3.55
2019-05-20T18:14:03.685Z,4.10
2019-05-20T18:16:33.158Z,4.10
2019-05-20T18:19:02.741Z,3.92
2019-05-20T18:21:32.342Z,4.25
2019-05-20T18:24:02.256Z,4.60
2019-05-20T18:26:31.869Z,11.45
2019-05-20T18:29:01.745Z,18.37
2019-05-20T18:31:32.734Z,21.62
2019-05-20T18:34:02.435Z,9.30
2019-05-20T18:36:32.272Z,6.85
2019-05-20T18:39:01.801Z,5.35
2019-05-20T18:41:33.054Z,5.30
2019-05-20T18:44:02.802Z,4.33
2019-05-20T18:46:33.532Z,4.95
2019-05-20T18:49:03.055Z,4.50
2019-05-20T18:51:32.769Z,4.62
2019-05-20T18:54:02.557Z,5.42
2019-05-20T18:56:32.418Z,4.80
2019-05-20T18:59:01.887Z,4.85
2019-05-20T19:01:44.730Z,4.35
2019-05-20T19:04:02.814Z,5.05
2019-05-20T19:06:32.601Z,4.92
2019-05-20T19:09:02.306Z,5.00
2019-05-20T19:11:33.108Z,4.75
2019-05-20T19:14:02.675Z,4.92
2019-05-20T19:16:32.283Z,5.12
2019-05-20T19:19:01.962Z,5.40
2019-05-20T19:21:31.976Z,4.97
2019-05-20T19:24:01.484Z,4.47
2019-05-20T19:26:31.648Z,4.55
2019-05-20T19:29:01.020Z,4.80
2019-05-20T19:31:30.867Z,6.65
2019-05-20T19:34:00.434Z,6.22
2019-05-20T19:36:29.927Z,7.60
2019-05-20T19:38:59.810Z,4.87
2019-05-20T19:41:32.095Z,4.85
2019-05-20T19:44:01.760Z,4.80
2019-05-20T19:46:31.609Z,5.12
2019-05-20T19:49:01.757Z,5.37
2019-05-20T19:51:31.499Z,5.75
2019-05-20T19:54:02.829Z,14.98
2019-05-20T19:56:35.782Z,10.60
2019-05-20T19:59:05.734Z,20.00
2019-05-20T20:01:35.409Z,25.55
2019-05-20T20:04:04.981Z,18.95
2019-05-20T20:06:34.744Z,17.98
2019-05-20T20:09:06.199Z,8.93
2019-05-20T20:11:35.846Z,20.40
2019-05-20T20:14:05.456Z,22.22
2019-05-20T20:16:35.092Z,21.57
2019-05-20T20:19:04.643Z,19.57
2019-05-20T20:21:34.594Z,23.02
2019-05-20T20:24:04.158Z,13.80
2019-05-20T20:26:33.994Z,8.53
2019-05-20T20:29:03.677Z,6.40
2019-05-20T20:31:33.156Z,5.90
2019-05-20T20:34:03.506Z,6.17
2019-05-20T20:36:33.450Z,5.90
2019-05-20T20:39:04.860Z,6.33
2019-05-20T20:41:34.750Z,6.40
2019-05-20T20:44:04.620Z,6.35
2019-05-20T20:46:34.024Z,5.85
2019-05-20T20:49:03.743Z,6.55
2019-05-20T20:51:33.212Z,5.90
2019-05-20T20:54:02.751Z,6.12
2019-05-20T20:56:34.295Z,6.17
2019-05-20T20:59:04.043Z,6.25
2019-05-20T21:01:33.769Z,6.37
2019-05-20T21:04:03.308Z,6.28
2019-05-20T21:06:33.135Z,6.83
2019-05-20T21:09:02.765Z,6.35
2019-05-20T21:11:32.639Z,6.08
2019-05-20T21:14:03.334Z,6.60
2019-05-20T21:16:34.485Z,6.55
2019-05-20T21:19:04.196Z,7.35
2019-05-20T21:21:34.219Z,7.33
2019-05-20T21:24:03.893Z,6.85
2019-05-20T21:26:33.763Z,6.70
2019-05-20T21:29:03.453Z,7.15
2019-05-20T21:31:33.243Z,6.62
2019-05-20T21:34:03.006Z,7.03
2019-05-20T21:36:46.607Z,6.92
2019-05-20T21:39:04.972Z,6.83
2019-05-20T21:41:34.689Z,6.28
2019-05-20T21:44:04.329Z,7.25
2019-05-20T21:46:36.035Z,6.55
2019-05-20T21:49:05.226Z,6.90
2019-05-20T21:51:35.020Z,6.58
2019-05-20T21:54:04.747Z,6.70
2019-05-20T21:56:34.987Z,6.85
2019-05-20T21:59:04.490Z,7.25
2019-05-20T22:01:35.138Z,7.33
2019-05-20T22:04:05.860Z,6.87
2019-05-20T22:06:35.250Z,7.67
2019-05-20T22:09:06.149Z,7.00
2019-05-20T22:11:35.611Z,7.17
2019-05-20T22:14:05.517Z,6.75
2019-05-20T22:16:35.449Z,6.83
2019-05-20T22:19:05.013Z,6.87
2019-05-20T22:21:36.227Z,7.58
2019-05-20T22:24:07.499Z,7.58
2019-05-20T22:26:37.076Z,7.40
2019-05-20T22:29:06.713Z,7.47
2019-05-20T22:31:37.290Z,7.45
2019-05-20T22:34:06.627Z,8.18
2019-05-20T22:36:36.124Z,7.40
2019-05-20T22:39:07.792Z,7.80
2019-05-20T22:41:37.293Z,7.50
2019-05-20T22:44:06.925Z,7.92
2019-05-20T22:46:36.762Z,7.90
2019-05-20T22:49:06.453Z,7.60
2019-05-20T22:51:35.960Z,7.60
2019-05-20T22:54:05.682Z,7.17
2019-05-20T22:56:35.414Z,7.22
2019-05-20T22:59:05.207Z,7.62
2019-05-20T23:01:34.737Z,7.55
2019-05-20T23:04:06.177Z,7.00
2019-05-20T23:06:35.996Z,8.00
2019-05-20T23:09:06.788Z,7.53
2019-05-20T23:11:36.444Z,8.25
2019-05-20T23:14:06.239Z,7.87
2019-05-20T23:16:36.067Z,8.18
2019-05-20T23:19:05.526Z,7.70
2019-05-20T23:21:35.176Z,8.23
2019-05-20T23:24:05.080Z,7.85
2019-05-20T23:26:34.860Z,8.43
2019-05-20T23:29:04.502Z,8.88
2019-05-20T23:31:34.190Z,8.90
2019-05-20T23:34:12.180Z,8.30
2019-05-20T23:36:34.994Z,8.75
2019-05-20T23:39:06.742Z,8.80
2019-05-20T23:41:36.648Z,10.13
2019-05-20T23:44:06.902Z,8.65
2019-05-20T23:46:36.750Z,9.53
2019-05-20T23:49:06.338Z,9.65
2019-05-20T23:51:35.989Z,8.90
2019-05-20T23:54:05.565Z,8.93
2019-05-20T23:56:35.501Z,9.90
2019-05-20T23:59:05.129Z,8.98
